sensor_id;sensor_type;location;lat;lon;timestamp;P1;durP1;ratioP1;P2;durP2;ratioP2
7160;SDS011;3622;53.576;9.978;2023-04-24T00:02:16;9.27;;;7.93;;
7160;SDS011;3622;53.576;9.978;2023-04-24T00:04:42;7.90;;;7.10;;
7160;SDS011;3622;53.576;9.978;2023-04-24T00:07:11;10.13;;;8.50;;
7160;SDS011;3622;53.576;9.978;2023-04-24T00:09:38;11.67;;;7.77;;
7160;SDS011;3622;53.576;9.978;2023-04-24T00:12:04;8.93;;;7.70;;
7160;SDS011;3622;53.576;9.978;2023-04-24T00:14:33;8.23;;;7.43;;
7160;SDS011;3622;53.576;9.978;2023-04-24T00:17:00;8.10;;;7.30;;
7160;SDS011;3622;53.576;9.978;2023-04-24T00:19:27;9.97;;;7.90;;
7160;SDS011;3622;53.576;9.978;2023-04-24T00:21:53;9.20;;;7.13;;
7160;SDS011;3622;53.576;9.978;2023-04-24T00:24:19;13.70;;;10.47;;
7160;SDS011;3622;53.576;9.978;2023-04-24T00:26:45;10.47;;;7.67;;
7160;SDS011;3622;53.576;9.978;2023-04-24T00:29:11;8.00;;;7.20;;
7160;SDS011;3622;53.576;9.978;2023-04-24T00:31:37;8.67;;;7.87;;
7160;SDS011;3622;53.576;9.978;2023-04-24T00:34:03;8.43;;;7.63;;
7160;SDS011;3622;53.576;9.978;2023-04-24T00:36:30;8.00;;;6.57;;
7160;SDS011;3622;53.576;9.978;2023-04-24T00:38:57;7.50;;;6.80;;
7160;SDS011;3622;53.576;9.978;2023-04-24T00:41:24;8.90;;;7.83;;
7160;SDS011;3622;53.576;9.978;2023-04-24T00:43:50;8.33;;;7.43;;
7160;SDS011;3622;53.576;9.978;2023-04-24T00:46:16;8.77;;;7.87;;
7160;SDS011;3622;53.576;9.978;2023-04-24T00:48:43;11.50;;;8.00;;
7160;SDS011;3622;53.576;9.978;2023-04-24T00:51:09;7.10;;;6.40;;
7160;SDS011;3622;53.576;9.978;2023-04-24T00:53:35;7.80;;;6.93;;
7160;SDS011;3622;53.576;9.978;2023-04-24T00:56:01;9.50;;;7.37;;
7160;SDS011;3622;53.576;9.978;2023-04-24T00:58:28;8.30;;;7.50;;
7160;SDS011;3622;53.576;9.978;2023-04-24T01:00:56;8.90;;;8.00;;
7160;SDS011;3622;53.576;9.978;2023-04-24T01:03:22;8.53;;;7.63;;
7160;SDS011;3622;53.576;9.978;2023-04-24T01:05:51;8.43;;;7.20;;
7160;SDS011;3622;53.576;9.978;2023-04-24T01:08:17;9.37;;;7.33;;
7160;SDS011;3622;53.576;9.978;2023-04-24T01:10:43;8.00;;;7.10;;
7160;SDS011;3622;53.576;9.978;2023-04-24T01:13:11;6.87;;;6.00;;
7160;SDS011;3622;53.576;9.978;2023-04-24T01:15:37;8.23;;;7.40;;
7160;SDS011;3622;53.576;9.978;2023-04-24T01:18:03;6.80;;;6.13;;
7160;SDS011;3622;53.576;9.978;2023-04-24T01:20:29;10.83;;;7.10;;
7160;SDS011;3622;53.576;9.978;2023-04-24T01:22:56;7.10;;;6.37;;
7160;SDS011;3622;53.576;9.978;2023-04-24T01:25:23;6.87;;;6.17;;
7160;SDS011;3622;53.576;9.978;2023-04-24T01:27:49;6.37;;;5.87;;
7160;SDS011;3622;53.576;9.978;2023-04-24T01:30:16;7.00;;;6.20;;
7160;SDS011;3622;53.576;9.978;2023-04-24T01:32:42;6.10;;;5.60;;
7160;SDS011;3622;53.576;9.978;2023-04-24T01:35:09;6.33;;;5.83;;
7160;SDS011;3622;53.576;9.978;2023-04-24T01:37:35;6.23;;;5.63;;
7160;SDS011;3622;53.576;9.978;2023-04-24T01:40:02;5.50;;;5.10;;
7160;SDS011;3622;53.576;9.978;2023-04-24T01:42:29;6.17;;;5.60;;
7160;SDS011;3622;53.576;9.978;2023-04-24T01:44:55;5.37;;;4.90;;
7160;SDS011;3622;53.576;9.978;2023-04-24T01:47:22;5.40;;;4.97;;
7160;SDS011;3622;53.576;9.978;2023-04-24T01:49:48;5.40;;;4.90;;
7160;SDS011;3622;53.576;9.978;2023-04-24T01:52:15;5.80;;;5.10;;
7160;SDS011;3622;53.576;9.978;2023-04-24T01:54:42;5.47;;;4.43;;
7160;SDS011;3622;53.576;9.978;2023-04-24T01:57:08;5.90;;;5.40;;
7160;SDS011;3622;53.576;9.978;2023-04-24T01:59:35;4.70;;;4.40;;
7160;SDS011;3622;53.576;9.978;2023-04-24T02:02:01;4.83;;;4.53;;
7160;SDS011;3622;53.576;9.978;2023-04-24T02:04:27;4.60;;;4.30;;
7160;SDS011;3622;53.576;9.978;2023-04-24T02:06:53;5.23;;;4.40;;
7160;SDS011;3622;53.576;9.978;2023-04-24T02:09:20;3.60;;;3.30;;
7160;SDS011;3622;53.576;9.978;2023-04-24T02:11:45;3.80;;;3.50;;
7160;SDS011;3622;53.576;9.978;2023-04-24T02:14:12;3.17;;;2.93;;
7160;SDS011;3622;53.576;9.978;2023-04-24T02:16:37;3.37;;;3.13;;
7160;SDS011;3622;53.576;9.978;2023-04-24T02:19:03;3.80;;;3.57;;
7160;SDS011;3622;53.576;9.978;2023-04-24T02:21:30;3.20;;;3.00;;
7160;SDS011;3622;53.576;9.978;2023-04-24T02:23:56;3.80;;;3.60;;
7160;SDS011;3622;53.576;9.978;2023-04-24T02:26:23;3.43;;;3.13;;
7160;SDS011;3622;53.576;9.978;2023-04-24T02:28:49;2.90;;;2.70;;
7160;SDS011;3622;53.576;9.978;2023-04-24T02:31:15;3.93;;;3.30;;
7160;SDS011;3622;53.576;9.978;2023-04-24T02:33:41;3.93;;;3.63;;
7160;SDS011;3622;53.576;9.978;2023-04-24T02:36:06;4.40;;;3.77;;
7160;SDS011;3622;53.576;9.978;2023-04-24T02:38:32;3.30;;;3.10;;
7160;SDS011;3622;53.576;9.978;2023-04-24T02:40:58;3.80;;;3.50;;
7160;SDS011;3622;53.576;9.978;2023-04-24T02:43:25;3.53;;;3.33;;
7160;SDS011;3622;53.576;9.978;2023-04-24T02:45:51;3.30;;;3.10;;
7160;SDS011;3622;53.576;9.978;2023-04-24T02:48:17;5.70;;;3.80;;
7160;SDS011;3622;53.576;9.978;2023-04-24T02:50:45;3.73;;;3.53;;
7160;SDS011;3622;53.576;9.978;2023-04-24T02:53:11;3.60;;;3.40;;
7160;SDS011;3622;53.576;9.978;2023-04-24T02:55:37;3.83;;;3.60;;
7160;SDS011;3622;53.576;9.978;2023-04-24T02:58:03;3.50;;;3.20;;
7160;SDS011;3622;53.576;9.978;2023-04-24T03:00:30;3.70;;;3.50;;
7160;SDS011;3622;53.576;9.978;2023-04-24T03:02:57;3.73;;;3.50;;
7160;SDS011;3622;53.576;9.978;2023-04-24T03:05:22;4.10;;;3.70;;
7160;SDS011;3622;53.576;9.978;2023-04-24T03:07:48;3.23;;;3.03;;
7160;SDS011;3622;53.576;9.978;2023-04-24T03:10:14;3.00;;;2.80;;
7160;SDS011;3622;53.576;9.978;2023-04-24T03:12:40;2.77;;;2.67;;
7160;SDS011;3622;53.576;9.978;2023-04-24T03:15:06;3.17;;;2.90;;
7160;SDS011;3622;53.576;9.978;2023-04-24T03:17:33;4.30;;;4.00;;
7160;SDS011;3622;53.576;9.978;2023-04-24T03:19:58;3.90;;;3.47;;
7160;SDS011;3622;53.576;9.978;2023-04-24T03:22:24;10.47;;;8.00;;
7160;SDS011;3622;53.576;9.978;2023-04-24T03:24:50;3.60;;;3.37;;
7160;SDS011;3622;53.576;9.978;2023-04-24T03:27:17;3.80;;;3.50;;
7160;SDS011;3622;53.576;9.978;2023-04-24T03:29:43;2.90;;;2.80;;
7160;SDS011;3622;53.576;9.978;2023-04-24T03:32:08;5.10;;;4.70;;
7160;SDS011;3622;53.576;9.978;2023-04-24T03:34:35;7.20;;;5.20;;
7160;SDS011;3622;53.576;9.978;2023-04-24T03:37:01;2.70;;;2.60;;
7160;SDS011;3622;53.576;9.978;2023-04-24T03:39:27;4.13;;;3.80;;
7160;SDS011;3622;53.576;9.978;2023-04-24T03:41:53;3.03;;;2.93;;
7160;SDS011;3622;53.576;9.978;2023-04-24T03:44:19;3.50;;;3.20;;
7160;SDS011;3622;53.576;9.978;2023-04-24T03:46:45;5.33;;;2.77;;
7160;SDS011;3622;53.576;9.978;2023-04-24T03:49:11;2.97;;;2.83;;
7160;SDS011;3622;53.576;9.978;2023-04-24T03:51:37;3.00;;;2.80;;
7160;SDS011;3622;53.576;9.978;2023-04-24T03:54:03;3.43;;;3.20;;
7160;SDS011;3622;53.576;9.978;2023-04-24T03:56:29;3.10;;;2.67;;
7160;SDS011;3622;53.576;9.978;2023-04-24T03:58:55;3.10;;;2.80;;
7160;SDS011;3622;53.576;9.978;2023-04-24T04:01:21;3.93;;;2.10;;
7160;SDS011;3622;53.576;9.978;2023-04-24T04:03:47;3.03;;;2.80;;
7160;SDS011;3622;53.576;9.978;2023-04-24T04:06:13;2.23;;;2.13;;
7160;SDS011;3622;53.576;9.978;2023-04-24T04:08:39;2.27;;;2.03;;
7160;SDS011;3622;53.576;9.978;2023-04-24T04:11:05;2.53;;;2.43;;
7160;SDS011;3622;53.576;9.978;2023-04-24T04:13:31;3.90;;;3.00;;
7160;SDS011;3622;53.576;9.978;2023-04-24T04:15:57;2.70;;;2.60;;
7160;SDS011;3622;53.576;9.978;2023-04-24T04:18:23;2.47;;;2.30;;
7160;SDS011;3622;53.576;9.978;2023-04-24T04:20:49;4.40;;;2.40;;
7160;SDS011;3622;53.576;9.978;2023-04-24T04:23:15;2.00;;;1.90;;
7160;SDS011;3622;53.576;9.978;2023-04-24T04:25:41;5.13;;;2.07;;
7160;SDS011;3622;53.576;9.978;2023-04-24T04:28:07;1.90;;;1.80;;
7160;SDS011;3622;53.576;9.978;2023-04-24T04:30:33;2.53;;;2.00;;
7160;SDS011;3622;53.576;9.978;2023-04-24T04:32:59;2.67;;;2.47;;
7160;SDS011;3622;53.576;9.978;2023-04-24T04:35:25;3.37;;;2.07;;
7160;SDS011;3622;53.576;9.978;2023-04-24T04:37:51;2.23;;;2.10;;
7160;SDS011;3622;53.576;9.978;2023-04-24T04:40:17;1.93;;;1.83;;
7160;SDS011;3622;53.576;9.978;2023-04-24T04:42:43;1.73;;;1.63;;
7160;SDS011;3622;53.576;9.978;2023-04-24T04:45:11;1.87;;;1.77;;
7160;SDS011;3622;53.576;9.978;2023-04-24T04:47:37;1.83;;;1.73;;
7160;SDS011;3622;53.576;9.978;2023-04-24T04:50:04;2.00;;;1.90;;
7160;SDS011;3622;53.576;9.978;2023-04-24T04:52:30;2.40;;;1.60;;
7160;SDS011;3622;53.576;9.978;2023-04-24T04:54:56;1.73;;;1.63;;
7160;SDS011;3622;53.576;9.978;2023-04-24T04:57:22;1.87;;;1.77;;
7160;SDS011;3622;53.576;9.978;2023-04-24T04:59:48;2.10;;;2.00;;
7160;SDS011;3622;53.576;9.978;2023-04-24T05:02:14;2.20;;;1.57;;
7160;SDS011;3622;53.576;9.978;2023-04-24T05:04:40;1.80;;;1.70;;
7160;SDS011;3622;53.576;9.978;2023-04-24T05:07:06;1.97;;;1.87;;
7160;SDS011;3622;53.576;9.978;2023-04-24T05:09:32;1.93;;;1.83;;
7160;SDS011;3622;53.576;9.978;2023-04-24T05:11:58;2.03;;;1.90;;
7160;SDS011;3622;53.576;9.978;2023-04-24T05:14:24;1.80;;;1.70;;
7160;SDS011;3622;53.576;9.978;2023-04-24T05:16:50;1.60;;;1.50;;
7160;SDS011;3622;53.576;9.978;2023-04-24T05:19:16;2.47;;;1.40;;
7160;SDS011;3622;53.576;9.978;2023-04-24T05:21:42;2.17;;;1.50;;
7160;SDS011;3622;53.576;9.978;2023-04-24T05:24:08;3.07;;;1.67;;
7160;SDS011;3622;53.576;9.978;2023-04-24T05:26:34;7.53;;;2.30;;
7160;SDS011;3622;53.576;9.978;2023-04-24T05:29:00;3.30;;;1.73;;
7160;SDS011;3622;53.576;9.978;2023-04-24T05:31:27;4.07;;;2.00;;
7160;SDS011;3622;53.576;9.978;2023-04-24T05:33:53;7.47;;;2.20;;
7160;SDS011;3622;53.576;9.978;2023-04-24T05:36:19;3.17;;;1.70;;
7160;SDS011;3622;53.576;9.978;2023-04-24T05:38:44;7.10;;;2.13;;
7160;SDS011;3622;53.576;9.978;2023-04-24T05:41:10;3.83;;;1.67;;
7160;SDS011;3622;53.576;9.978;2023-04-24T05:43:36;3.53;;;1.47;;
7160;SDS011;3622;53.576;9.978;2023-04-24T05:46:02;5.43;;;2.10;;
7160;SDS011;3622;53.576;9.978;2023-04-24T05:48:28;4.10;;;1.90;;
7160;SDS011;3622;53.576;9.978;2023-04-24T05:50:55;7.67;;;2.17;;
7160;SDS011;3622;53.576;9.978;2023-04-24T05:53:20;5.17;;;1.93;;
7160;SDS011;3622;53.576;9.978;2023-04-24T05:55:47;6.03;;;2.33;;
7160;SDS011;3622;53.576;9.978;2023-04-24T05:58:12;8.70;;;2.23;;
7160;SDS011;3622;53.576;9.978;2023-04-24T06:00:39;5.60;;;1.90;;
7160;SDS011;3622;53.576;9.978;2023-04-24T06:03:07;5.37;;;2.13;;
7160;SDS011;3622;53.576;9.978;2023-04-24T06:05:33;11.20;;;2.63;;
7160;SDS011;3622;53.576;9.978;2023-04-24T06:08:00;9.07;;;2.80;;
7160;SDS011;3622;53.576;9.978;2023-04-24T06:10:25;13.13;;;3.40;;
7160;SDS011;3622;53.576;9.978;2023-04-24T06:12:52;9.13;;;2.97;;
7160;SDS011;3622;53.576;9.978;2023-04-24T06:15:21;8.00;;;2.77;;
7160;SDS011;3622;53.576;9.978;2023-04-24T06:17:47;10.10;;;2.47;;
7160;SDS011;3622;53.576;9.978;2023-04-24T06:20:13;6.37;;;2.50;;
7160;SDS011;3622;53.576;9.978;2023-04-24T06:22:39;8.73;;;3.90;;
7160;SDS011;3622;53.576;9.978;2023-04-24T06:25:05;19.03;;;4.37;;
7160;SDS011;3622;53.576;9.978;2023-04-24T06:27:32;4.80;;;3.27;;
7160;SDS011;3622;53.576;9.978;2023-04-24T06:29:58;19.10;;;5.40;;
7160;SDS011;3622;53.576;9.978;2023-04-24T06:32:24;11.43;;;4.83;;
7160;SDS011;3622;53.576;9.978;2023-04-24T06:34:53;16.40;;;5.57;;
7160;SDS011;3622;53.576;9.978;2023-04-24T06:37:22;14.00;;;5.43;;
7160;SDS011;3622;53.576;9.978;2023-04-24T06:39:48;19.30;;;5.97;;
7160;SDS011;3622;53.576;9.978;2023-04-24T06:42:14;13.47;;;5.20;;
7160;SDS011;3622;53.576;9.978;2023-04-24T06:44:40;20.40;;;6.60;;
7160;SDS011;3622;53.576;9.978;2023-04-24T06:47:06;22.10;;;5.90;;
7160;SDS011;3622;53.576;9.978;2023-04-24T06:49:34;17.17;;;6.73;;
7160;SDS011;3622;53.576;9.978;2023-04-24T06:52:00;21.53;;;6.93;;
7160;SDS011;3622;53.576;9.978;2023-04-24T06:54:26;23.17;;;7.30;;
7160;SDS011;3622;53.576;9.978;2023-04-24T06:56:52;22.67;;;7.60;;
7160;SDS011;3622;53.576;9.978;2023-04-24T06:59:18;28.07;;;9.37;;
7160;SDS011;3622;53.576;9.978;2023-04-24T07:01:44;21.97;;;7.77;;
7160;SDS011;3622;53.576;9.978;2023-04-24T07:04:10;12.70;;;6.07;;
7160;SDS011;3622;53.576;9.978;2023-04-24T07:06:37;11.53;;;4.30;;
7160;SDS011;3622;53.576;9.978;2023-04-24T07:09:04;14.73;;;5.40;;
7160;SDS011;3622;53.576;9.978;2023-04-24T07:11:30;15.30;;;5.50;;
7160;SDS011;3622;53.576;9.978;2023-04-24T07:13:56;11.20;;;3.97;;
7160;SDS011;3622;53.576;9.978;2023-04-24T07:16:22;8.67;;;3.10;;
7160;SDS011;3622;53.576;9.978;2023-04-24T07:18:48;11.33;;;3.77;;
7160;SDS011;3622;53.576;9.978;2023-04-24T07:21:14;4.00;;;2.97;;
7160;SDS011;3622;53.576;9.978;2023-04-24T07:23:40;5.70;;;3.40;;
7160;SDS011;3622;53.576;9.978;2023-04-24T07:26:06;4.63;;;3.03;;
7160;SDS011;3622;53.576;9.978;2023-04-24T07:28:32;3.47;;;3.20;;
7160;SDS011;3622;53.576;9.978;2023-04-24T07:30:58;5.73;;;4.20;;
7160;SDS011;3622;53.576;9.978;2023-04-24T07:33:25;7.60;;;3.43;;
7160;SDS011;3622;53.576;9.978;2023-04-24T07:35:51;10.47;;;5.50;;
7160;SDS011;3622;53.576;9.978;2023-04-24T07:38:17;5.80;;;4.80;;
7160;SDS011;3622;53.576;9.978;2023-04-24T07:40:46;5.67;;;4.07;;
7160;SDS011;3622;53.576;9.978;2023-04-24T07:43:12;4.10;;;3.80;;
7160;SDS011;3622;53.576;9.978;2023-04-24T07:45:38;4.10;;;3.90;;
7160;SDS011;3622;53.576;9.978;2023-04-24T07:48:05;4.27;;;4.07;;
7160;SDS011;3622;53.576;9.978;2023-04-24T07:50:31;4.13;;;3.90;;
7160;SDS011;3622;53.576;9.978;2023-04-24T07:52:57;4.33;;;4.00;;
7160;SDS011;3622;53.576;9.978;2023-04-24T07:55:23;3.83;;;3.63;;
7160;SDS011;3622;53.576;9.978;2023-04-24T07:57:49;4.43;;;4.13;;
7160;SDS011;3622;53.576;9.978;2023-04-24T08:00:15;5.40;;;4.13;;
7160;SDS011;3622;53.576;9.978;2023-04-24T08:02:41;4.67;;;4.37;;
7160;SDS011;3622;53.576;9.978;2023-04-24T08:05:07;4.80;;;4.50;;
7160;SDS011;3622;53.576;9.978;2023-04-24T08:07:33;4.70;;;4.30;;
7160;SDS011;3622;53.576;9.978;2023-04-24T08:10:00;6.90;;;3.93;;
7160;SDS011;3622;53.576;9.978;2023-04-24T08:12:28;5.03;;;4.40;;
7160;SDS011;3622;53.576;9.978;2023-04-24T08:14:54;5.60;;;5.07;;
7160;SDS011;3622;53.576;9.978;2023-04-24T08:17:20;5.30;;;4.80;;
7160;SDS011;3622;53.576;9.978;2023-04-24T08:19:46;5.33;;;4.83;;
7160;SDS011;3622;53.576;9.978;2023-04-24T08:22:16;5.67;;;5.17;;
7160;SDS011;3622;53.576;9.978;2023-04-24T08:24:42;5.97;;;5.47;;
7160;SDS011;3622;53.576;9.978;2023-04-24T08:27:08;5.30;;;4.90;;
7160;SDS011;3622;53.576;9.978;2023-04-24T08:29:35;6.37;;;5.77;;
7160;SDS011;3622;53.576;9.978;2023-04-24T08:32:01;5.90;;;5.40;;
7160;SDS011;3622;53.576;9.978;2023-04-24T08:34:27;5.10;;;4.80;;
7160;SDS011;3622;53.576;9.978;2023-04-24T08:36:53;5.13;;;4.83;;
7160;SDS011;3622;53.576;9.978;2023-04-24T08:39:19;5.70;;;5.20;;
7160;SDS011;3622;53.576;9.978;2023-04-24T08:41:45;7.77;;;4.60;;
7160;SDS011;3622;53.576;9.978;2023-04-24T08:44:13;5.37;;;4.97;;
7160;SDS011;3622;53.576;9.978;2023-04-24T08:46:41;6.40;;;5.70;;
7160;SDS011;3622;53.576;9.978;2023-04-24T08:49:08;6.37;;;5.40;;
7160;SDS011;3622;53.576;9.978;2023-04-24T08:51:34;5.73;;;5.33;;
7160;SDS011;3622;53.576;9.978;2023-04-24T08:54:02;6.10;;;5.50;;
7160;SDS011;3622;53.576;9.978;2023-04-24T08:56:28;7.57;;;6.73;;
7160;SDS011;3622;53.576;9.978;2023-04-24T08:58:55;6.80;;;6.20;;
7160;SDS011;3622;53.576;9.978;2023-04-24T09:01:22;6.20;;;5.70;;
7160;SDS011;3622;53.576;9.978;2023-04-24T09:03:49;6.53;;;5.93;;
7160;SDS011;3622;53.576;9.978;2023-04-24T09:06:16;6.90;;;6.20;;
7160;SDS011;3622;53.576;9.978;2023-04-24T09:08:43;9.27;;;7.83;;
7160;SDS011;3622;53.576;9.978;2023-04-24T09:11:10;7.00;;;6.30;;
7160;SDS011;3622;53.576;9.978;2023-04-24T09:13:37;6.80;;;6.20;;
7160;SDS011;3622;53.576;9.978;2023-04-24T09:16:03;7.10;;;6.40;;
7160;SDS011;3622;53.576;9.978;2023-04-24T09:18:29;11.03;;;9.13;;
7160;SDS011;3622;53.576;9.978;2023-04-24T09:23:26;6.90;;;6.20;;
7160;SDS011;3622;53.576;9.978;2023-04-24T09:25:55;6.30;;;5.77;;
7160;SDS011;3622;53.576;9.978;2023-04-24T09:28:25;8.80;;;6.27;;
7160;SDS011;3622;53.576;9.978;2023-04-24T09:31:01;14.33;;;9.67;;
7160;SDS011;3622;53.576;9.978;2023-04-24T09:33:27;6.40;;;5.80;;
7160;SDS011;3622;53.576;9.978;2023-04-24T09:35:53;5.90;;;5.40;;
7160;SDS011;3622;53.576;9.978;2023-04-24T09:38:19;9.33;;;5.63;;
7160;SDS011;3622;53.576;9.978;2023-04-24T09:40:58;6.40;;;5.50;;
7160;SDS011;3622;53.576;9.978;2023-04-24T09:43:25;6.40;;;5.80;;
7160;SDS011;3622;53.576;9.978;2023-04-24T09:45:52;7.53;;;5.93;;
7160;SDS011;3622;53.576;9.978;2023-04-24T09:48:29;6.60;;;6.03;;
7160;SDS011;3622;53.576;9.978;2023-04-24T09:50:55;6.93;;;6.33;;
7160;SDS011;3622;53.576;9.978;2023-04-24T09:53:24;6.80;;;6.20;;
7160;SDS011;3622;53.576;9.978;2023-04-24T09:55:51;8.07;;;7.27;;
7160;SDS011;3622;53.576;9.978;2023-04-24T09:58:18;10.57;;;8.20;;
7160;SDS011;3622;53.576;9.978;2023-04-24T10:00:44;9.90;;;7.73;;
7160;SDS011;3622;53.576;9.978;2023-04-24T10:03:11;11.70;;;8.33;;
7160;SDS011;3622;53.576;9.978;2023-04-24T10:05:37;10.83;;;9.70;;
7160;SDS011;3622;53.576;9.978;2023-04-24T10:08:07;6.80;;;6.03;;
7160;SDS011;3622;53.576;9.978;2023-04-24T10:10:39;6.93;;;6.27;;
7160;SDS011;3622;53.576;9.978;2023-04-24T10:13:06;7.80;;;6.30;;
7160;SDS011;3622;53.576;9.978;2023-04-24T10:15:32;7.67;;;6.90;;
7160;SDS011;3622;53.576;9.978;2023-04-24T10:17:59;9.30;;;7.97;;
7160;SDS011;3622;53.576;9.978;2023-04-24T10:20:26;8.20;;;7.40;;
7160;SDS011;3622;53.576;9.978;2023-04-24T10:22:54;9.60;;;8.57;;
7160;SDS011;3622;53.576;9.978;2023-04-24T10:25:21;8.40;;;7.30;;
7160;SDS011;3622;53.576;9.978;2023-04-24T10:27:48;10.30;;;7.60;;
7160;SDS011;3622;53.576;9.978;2023-04-24T10:30:14;12.13;;;9.23;;
7160;SDS011;3622;53.576;9.978;2023-04-24T10:32:40;12.63;;;7.83;;
7160;SDS011;3622;53.576;9.978;2023-04-24T10:35:07;11.40;;;8.00;;
7160;SDS011;3622;53.576;9.978;2023-04-24T10:40:32;14.37;;;9.83;;
7160;SDS011;3622;53.576;9.978;2023-04-24T10:42:58;9.07;;;7.63;;
7160;SDS011;3622;53.576;9.978;2023-04-24T10:45:25;12.40;;;8.53;;
7160;SDS011;3622;53.576;9.978;2023-04-24T10:50:47;13.53;;;10.23;;
7160;SDS011;3622;53.576;9.978;2023-04-24T10:53:21;11.60;;;10.27;;
7160;SDS011;3622;53.576;9.978;2023-04-24T10:58:24;13.73;;;9.07;;
7160;SDS011;3622;53.576;9.978;2023-04-24T11:00:57;12.67;;;9.87;;
7160;SDS011;3622;53.576;9.978;2023-04-24T11:03:27;15.90;;;10.23;;
7160;SDS011;3622;53.576;9.978;2023-04-24T11:05:57;12.10;;;9.17;;
7160;SDS011;3622;53.576;9.978;2023-04-24T11:08:25;8.97;;;8.07;;
7160;SDS011;3622;53.576;9.978;2023-04-24T11:10:55;10.60;;;7.70;;
7160;SDS011;3622;53.576;9.978;2023-04-24T11:13:22;17.13;;;8.93;;
7160;SDS011;3622;53.576;9.978;2023-04-24T11:16:11;12.30;;;9.07;;
7160;SDS011;3622;53.576;9.978;2023-04-24T11:18:37;18.43;;;13.50;;
7160;SDS011;3622;53.576;9.978;2023-04-24T11:21:11;12.23;;;9.33;;
7160;SDS011;3622;53.576;9.978;2023-04-24T11:23:37;12.47;;;9.03;;
7160;SDS011;3622;53.576;9.978;2023-04-24T11:26:10;11.57;;;8.63;;
7160;SDS011;3622;53.576;9.978;2023-04-24T11:28:37;10.63;;;8.90;;
7160;SDS011;3622;53.576;9.978;2023-04-24T11:33:47;10.60;;;8.50;;
7160;SDS011;3622;53.576;9.978;2023-04-24T11:36:13;10.30;;;8.80;;
7160;SDS011;3622;53.576;9.978;2023-04-24T11:38:39;17.83;;;11.43;;
7160;SDS011;3622;53.576;9.978;2023-04-24T11:41:06;11.80;;;9.03;;
7160;SDS011;3622;53.576;9.978;2023-04-24T11:43:32;13.27;;;9.10;;
7160;SDS011;3622;53.576;9.978;2023-04-24T11:45:59;12.97;;;9.53;;
7160;SDS011;3622;53.576;9.978;2023-04-24T11:48:25;14.80;;;11.17;;
7160;SDS011;3622;53.576;9.978;2023-04-24T11:50:51;15.47;;;11.30;;
7160;SDS011;3622;53.576;9.978;2023-04-24T11:53:20;9.77;;;8.57;;
7160;SDS011;3622;53.576;9.978;2023-04-24T11:55:46;16.07;;;12.00;;
7160;SDS011;3622;53.576;9.978;2023-04-24T11:58:12;10.60;;;9.17;;
7160;SDS011;3622;53.576;9.978;2023-04-24T12:00:38;12.10;;;8.27;;
7160;SDS011;3622;53.576;9.978;2023-04-24T12:03:08;8.10;;;7.30;;
7160;SDS011;3622;53.576;9.978;2023-04-24T12:05:34;11.13;;;8.30;;
7160;SDS011;3622;53.576;9.978;2023-04-24T12:08:00;7.43;;;6.73;;
7160;SDS011;3622;53.576;9.978;2023-04-24T12:10:27;9.00;;;6.83;;
7160;SDS011;3622;53.576;9.978;2023-04-24T12:12:54;23.93;;;14.93;;
7160;SDS011;3622;53.576;9.978;2023-04-24T12:15:21;9.97;;;8.40;;
7160;SDS011;3622;53.576;9.978;2023-04-24T12:17:47;10.17;;;7.27;;
7160;SDS011;3622;53.576;9.978;2023-04-24T12:20:14;10.97;;;8.70;;
7160;SDS011;3622;53.576;9.978;2023-04-24T12:25:15;7.97;;;6.77;;
7160;SDS011;3622;53.576;9.978;2023-04-24T12:27:43;7.30;;;6.57;;
7160;SDS011;3622;53.576;9.978;2023-04-24T12:30:10;8.03;;;6.80;;
7160;SDS011;3622;53.576;9.978;2023-04-24T12:32:40;7.67;;;6.97;;
7160;SDS011;3622;53.576;9.978;2023-04-24T12:35:07;8.00;;;7.20;;
7160;SDS011;3622;53.576;9.978;2023-04-24T12:37:33;12.33;;;8.73;;
7160;SDS011;3622;53.576;9.978;2023-04-24T12:40:02;8.60;;;6.60;;
7160;SDS011;3622;53.576;9.978;2023-04-24T12:42:30;8.00;;;7.17;;
7160;SDS011;3622;53.576;9.978;2023-04-24T12:44:57;10.97;;;7.60;;
7160;SDS011;3622;53.576;9.978;2023-04-24T12:47:24;30.90;;;17.07;;
7160;SDS011;3622;53.576;9.978;2023-04-24T12:49:50;8.90;;;7.90;;
7160;SDS011;3622;53.576;9.978;2023-04-24T12:52:17;9.23;;;7.70;;
7160;SDS011;3622;53.576;9.978;2023-04-24T12:54:45;17.80;;;9.80;;
7160;SDS011;3622;53.576;9.978;2023-04-24T12:57:11;8.90;;;8.00;;
7160;SDS011;3622;53.576;9.978;2023-04-24T12:59:37;13.07;;;8.67;;
7160;SDS011;3622;53.576;9.978;2023-04-24T13:02:04;8.73;;;7.83;;
7160;SDS011;3622;53.576;9.978;2023-04-24T13:04:30;8.43;;;7.47;;
7160;SDS011;3622;53.576;9.978;2023-04-24T13:06:56;9.90;;;7.60;;
7160;SDS011;3622;53.576;9.978;2023-04-24T13:09:22;8.33;;;7.50;;
7160;SDS011;3622;53.576;9.978;2023-04-24T13:11:49;10.00;;;7.60;;
7160;SDS011;3622;53.576;9.978;2023-04-24T13:14:15;11.17;;;7.13;;
7160;SDS011;3622;53.576;9.978;2023-04-24T13:16:41;8.87;;;7.60;;
7160;SDS011;3622;53.576;9.978;2023-04-24T13:19:07;9.40;;;7.70;;
7160;SDS011;3622;53.576;9.978;2023-04-24T13:21:33;7.27;;;6.47;;
7160;SDS011;3622;53.576;9.978;2023-04-24T13:23:59;7.20;;;6.50;;
7160;SDS011;3622;53.576;9.978;2023-04-24T13:26:25;7.73;;;6.63;;
7160;SDS011;3622;53.576;9.978;2023-04-24T13:28:51;7.23;;;5.87;;
7160;SDS011;3622;53.576;9.978;2023-04-24T13:31:17;6.70;;;6.10;;
7160;SDS011;3622;53.576;9.978;2023-04-24T13:33:43;7.13;;;5.90;;
7160;SDS011;3622;53.576;9.978;2023-04-24T13:36:09;7.83;;;6.67;;
7160;SDS011;3622;53.576;9.978;2023-04-24T13:38:35;6.87;;;6.27;;
7160;SDS011;3622;53.576;9.978;2023-04-24T13:41:01;6.57;;;6.03;;
7160;SDS011;3622;53.576;9.978;2023-04-24T13:43:27;8.90;;;5.97;;
7160;SDS011;3622;53.576;9.978;2023-04-24T13:45:53;8.50;;;6.93;;
7160;SDS011;3622;53.576;9.978;2023-04-24T13:48:19;6.60;;;6.10;;
7160;SDS011;3622;53.576;9.978;2023-04-24T13:50:45;6.63;;;6.03;;
7160;SDS011;3622;53.576;9.978;2023-04-24T13:53:13;6.33;;;5.70;;
7160;SDS011;3622;53.576;9.978;2023-04-24T13:55:39;8.07;;;5.60;;
7160;SDS011;3622;53.576;9.978;2023-04-24T13:58:05;6.10;;;5.60;;
7160;SDS011;3622;53.576;9.978;2023-04-24T14:00:31;5.97;;;5.37;;
7160;SDS011;3622;53.576;9.978;2023-04-24T14:02:57;6.20;;;5.60;;
7160;SDS011;3622;53.576;9.978;2023-04-24T14:05:23;6.77;;;6.27;;
7160;SDS011;3622;53.576;9.978;2023-04-24T14:07:50;7.30;;;6.37;;
7160;SDS011;3622;53.576;9.978;2023-04-24T14:10:16;6.50;;;5.90;;
7160;SDS011;3622;53.576;9.978;2023-04-24T14:12:42;6.50;;;5.90;;
7160;SDS011;3622;53.576;9.978;2023-04-24T14:15:08;6.30;;;5.83;;
7160;SDS011;3622;53.576;9.978;2023-04-24T14:17:35;7.83;;;6.30;;
7160;SDS011;3622;53.576;9.978;2023-04-24T14:20:01;6.30;;;5.80;;
7160;SDS011;3622;53.576;9.978;2023-04-24T14:22:29;6.37;;;5.77;;
7160;SDS011;3622;53.576;9.978;2023-04-24T14:24:55;5.83;;;5.30;;
7160;SDS011;3622;53.576;9.978;2023-04-24T14:27:21;6.50;;;5.33;;
7160;SDS011;3622;53.576;9.978;2023-04-24T14:29:47;6.07;;;5.57;;
7160;SDS011;3622;53.576;9.978;2023-04-24T14:32:13;7.37;;;6.67;;
7160;SDS011;3622;53.576;9.978;2023-04-24T14:34:40;6.70;;;6.00;;
7160;SDS011;3622;53.576;9.978;2023-04-24T14:37:06;13.67;;;6.50;;
7160;SDS011;3622;53.576;9.978;2023-04-24T14:39:32;13.80;;;7.20;;
7160;SDS011;3622;53.576;9.978;2023-04-24T14:41:58;6.37;;;5.77;;
7160;SDS011;3622;53.576;9.978;2023-04-24T14:44:24;7.20;;;6.30;;
7160;SDS011;3622;53.576;9.978;2023-04-24T14:46:51;7.97;;;6.63;;
7160;SDS011;3622;53.576;9.978;2023-04-24T14:49:16;7.07;;;6.37;;
7160;SDS011;3622;53.576;9.978;2023-04-24T14:51:42;7.73;;;6.73;;
7160;SDS011;3622;53.576;9.978;2023-04-24T14:54:08;8.60;;;6.40;;
7160;SDS011;3622;53.576;9.978;2023-04-24T14:56:34;7.93;;;6.47;;
7160;SDS011;3622;53.576;9.978;2023-04-24T14:59:01;7.80;;;6.77;;
7160;SDS011;3622;53.576;9.978;2023-04-24T15:01:27;10.67;;;7.40;;
7160;SDS011;3622;53.576;9.978;2023-04-24T15:03:53;8.97;;;6.97;;
7160;SDS011;3622;53.576;9.978;2023-04-24T15:06:19;13.90;;;7.40;;
7160;SDS011;3622;53.576;9.978;2023-04-24T15:08:45;7.80;;;6.70;;
7160;SDS011;3622;53.576;9.978;2023-04-24T15:11:11;9.77;;;6.87;;
7160;SDS011;3622;53.576;9.978;2023-04-24T15:13:37;8.20;;;7.10;;
7160;SDS011;3622;53.576;9.978;2023-04-24T15:16:03;6.53;;;5.93;;
7160;SDS011;3622;53.576;9.978;2023-04-24T15:18:30;8.77;;;6.63;;
7160;SDS011;3622;53.576;9.978;2023-04-24T15:20:56;5.57;;;5.07;;
7160;SDS011;3622;53.576;9.978;2023-04-24T15:23:22;4.80;;;4.40;;
7160;SDS011;3622;53.576;9.978;2023-04-24T15:25:48;4.03;;;3.73;;